Time;durP1;ratioP1;P1;durP2;ratioP2;P2;SDS_P1;SDS_P2;PMS_P1;PMS_P2;Temp;Humidity;BMP_temperature;BMP_pressure;BME280_temperature;BME280_humidity;BME280_pressure;Samples;Min_cycle;Max_cycle;Signal;HPM_P1;HPM_P2
2022/08/25 00:02:53;;;;;;;;;;;;;;;21.85;84.81;100473.53;5356763;32;35350;-67
2022/08/25 00:05:56;;;;;;;;;;;;;;;22.23;84.12;100468.59;5368392;32;35450;-73
2022/08/25 00:08:58;;;;;;;;;;;;;;;22.42;82.84;100471.37;5373872;32;35118;-67
2022/08/25 00:12:00;;;;;;;;;;;;;;;23.02;79.18;100468.78;5387212;32;34263;-67
2022/08/25 00:15:03;;;;;;;;;;;;;;;21.92;85.11;100478.38;5376917;32;35030;-74
2022/08/25 00:18:05;;;;;;;;;;;;;;;21.67;86.76;100471.56;5384168;32;34955;-74
2022/08/25 00:21:20;;;;;;;;;;;;;;;22.26;82.56;100463.81;5368994;32;35757;-72
2022/08/25 00:24:23;;;;;;;;;;;;;;;22.34;81.61;100460.47;5385241;32;34993;-74
2022/08/25 00:27:25;;;;;;;;;;;;;;;21.69;85.55;100465.09;5380169;32;34870;-73
2022/08/25 00:30:27;;;;;;;;;;;;;;;22.76;79.57;100449.63;5370264;32;35516;-67
2022/08/25 00:33:30;;;;;;;;;;;;;;;23.11;77.23;100455.38;5381634;32;34648;-67
2022/08/25 00:36:32;;;;;;;;;;;;;;;22.74;78.71;100465.84;5371017;32;34506;-67
2022/08/25 00:39:34;;;;;;;;;;;;;;;23.24;75.74;100450.59;5395748;32;34140;-73
2022/08/25 00:42:37;;;;;;;;;;;;;;;23.28;75.92;100445.81;5377312;32;34967;-70
2022/08/25 00:45:39;;;;;;;;;;;;;;;22.96;76.29;100440.69;5368740;32;34614;-67
2022/08/25 00:48:41;;;;;;;;;;;;;;;22.63;78.95;100436.50;5388267;32;45054;-67
2022/08/25 00:51:46;;;;;;;;;;;;;;;22.63;78.70;100448.03;5372310;32;34294;-75
2022/08/25 00:54:50;;;;;;;;;;;;;;;22.05;81.51;100454.94;5395167;32;35508;-74
2022/08/25 00:57:57;;;;;;;;;;;;;;;22.04;82.69;100456.75;5367153;32;34917;-67
2022/08/25 01:00:59;;;;;;;;;;;;;;;21.95;82.54;100459.38;5378499;32;34453;-74
2022/08/25 01:04:01;;;;;;;;;;;;;;;22.20;81.45;100468.84;5342699;32;904270;-67
2022/08/25 01:07:03;;;;;;;;;;;;;;;22.66;78.84;100455.78;5366089;32;34499;-67
2022/08/25 01:10:06;;;;;;;;;;;;;;;23.27;75.12;100452.16;5395019;32;34395;-73
2022/08/25 01:13:17;;;;;;;;;;;;;;;23.11;75.20;100450.00;5372619;32;34715;-73
2022/08/25 01:16:18;;;;;;;;;;;;;;;23.34;74.57;100444.41;5385390;32;46989;-73
2022/08/25 01:19:20;;;;;;;;;;;;;;;23.27;74.03;100440.59;5374161;32;34455;-74
2022/08/25 01:22:25;;;;;;;;;;;;;;;23.15;75.40;100446.06;5389381;32;34762;-74
2022/08/25 01:25:28;;;;;;;;;;;;;;;22.39;79.68;100448.38;5381934;32;34822;-74
2022/08/25 01:28:30;;;;;;;;;;;;;;;22.64;77.75;100448.88;5381649;32;34816;-74
2022/08/25 01:31:32;;;;;;;;;;;;;;;23.09;75.68;100440.44;5396585;32;34206;-72
2022/08/25 01:34:37;;;;;;;;;;;;;;;23.31;74.22;100433.94;5360696;32;34183;-74
2022/08/25 01:37:38;;;;;;;;;;;;;;;22.61;76.84;100447.34;5403485;32;34408;-67
2022/08/25 01:40:41;;;;;;;;;;;;;;;22.25;79.43;100446.06;5379683;32;44511;-67
2022/08/25 01:43:44;;;;;;;;;;;;;;;22.67;77.85;100433.41;5385240;32;35596;-67
2022/08/25 01:46:46;;;;;;;;;;;;;;;22.87;76.28;100438.84;5372439;32;35603;-68
2022/08/25 01:49:48;;;;;;;;;;;;;;;21.96;81.27;100442.31;5370414;32;34870;-68
2022/08/25 01:52:50;;;;;;;;;;;;;;;22.86;76.65;100442.44;5394508;32;35351;-68
2022/08/25 01:55:52;;;;;;;;;;;;;;;23.49;72.92;100435.78;5373980;32;35222;-67
2022/08/25 01:58:55;;;;;;;;;;;;;;;23.56;72.37;100438.75;5388404;32;34741;-67
2022/08/25 02:01:57;;;;;;;;;;;;;;;23.33;73.49;100445.41;5341876;32;34938;-67
2022/08/25 02:05:00;;;;;;;;;;;;;;;23.02;74.68;100439.28;5386781;32;34992;-75
2022/08/25 02:08:03;;;;;;;;;;;;;;;22.21;78.62;100443.78;5375608;32;34908;-66
2022/08/25 02:11:05;;;;;;;;;;;;;;;21.59;82.62;100445.47;5363034;32;34022;-72
2022/08/25 02:14:08;;;;;;;;;;;;;;;21.73;81.34;100439.81;5383087;32;34630;-67
2022/08/25 02:17:10;;;;;;;;;;;;;;;21.35;83.81;100441.19;5361794;32;37523;-73
2022/08/25 02:20:11;;;;;;;;;;;;;;;21.52;83.31;100436.28;5382316;32;35583;-74
2022/08/25 02:23:13;;;;;;;;;;;;;;;21.37;83.98;100447.25;5372927;32;34451;-68
2022/08/25 02:26:17;;;;;;;;;;;;;;;22.48;77.98;100446.72;5379479;32;35335;-76
2022/08/25 02:29:19;;;;;;;;;;;;;;;22.56;76.83;100444.22;5377058;32;34866;-73
2022/08/25 02:32:21;;;;;;;;;;;;;;;22.36;76.81;100434.41;5367597;32;34857;-67
2022/08/25 02:35:23;;;;;;;;;;;;;;;22.31;78.03;100436.66;5387058;32;34560;-75
2022/08/25 02:38:26;;;;;;;;;;;;;;;22.45;77.22;100438.94;5371232;32;35095;-72
2022/08/25 02:41:29;;;;;;;;;;;;;;;22.97;74.34;100428.97;5379856;32;34914;-67
2022/08/25 02:44:32;;;;;;;;;;;;;;;22.92;74.24;100433.91;5371323;32;34674;-68
2022/08/25 02:47:35;;;;;;;;;;;;;;;21.70;80.19;100431.16;5368414;32;36208;-74
2022/08/25 02:50:37;;;;;;;;;;;;;;;21.57;81.26;100429.53;5382732;32;34652;-74
2022/08/25 02:53:40;;;;;;;;;;;;;;;22.06;79.09;100432.53;5379798;32;34885;-68
2022/08/25 02:56:42;;;;;;;;;;;;;;;22.39;77.96;100431.47;5379852;32;44913;-74
2022/08/25 02:59:47;;;;;;;;;;;;;;;21.92;79.56;100432.88;5381044;32;35152;-73
2022/08/25 03:02:49;;;;;;;;;;;;;;;22.09;78.84;100433.16;5358998;32;35131;-73
2022/08/25 03:05:50;;;;;;;;;;;;;;;22.09;78.71;100430.50;5368772;32;34959;-73
2022/08/25 03:08:53;;;;;;;;;;;;;;;22.43;76.40;100427.53;5377742;32;34811;-68
2022/08/25 03:11:54;;;;;;;;;;;;;;;22.74;75.31;100417.63;5377915;32;35679;-67
2022/08/25 03:14:56;;;;;;;;;;;;;;;22.38;77.35;100422.56;5371882;32;35241;-73
2022/08/25 03:18:00;;;;;;;;;;;;;;;22.64;75.94;100422.94;5396750;32;34887;-67
2022/08/25 03:21:04;;;;;;;;;;;;;;;22.20;77.81;100428.69;5368787;32;34297;-67
2022/08/25 03:24:06;;;;;;;;;;;;;;;22.25;77.90;100432.66;5397369;32;34878;-68
2022/08/25 03:27:07;;;;;;;;;;;;;;;22.00;78.46;100420.53;5366544;32;34487;-67
2022/08/25 03:30:10;;;;;;;;;;;;;;;21.44;82.74;100425.34;5370946;32;35179;-67
2022/08/25 03:33:12;;;;;;;;;;;;;;;22.02;79.71;100426.59;5396265;32;44654;-66
2022/08/25 03:36:14;;;;;;;;;;;;;;;21.59;80.63;100432.09;5370990;32;34480;-74
2022/08/25 03:39:16;;;;;;;;;;;;;;;22.08;78.49;100433.25;5387700;32;35363;-72
2022/08/25 03:42:18;;;;;;;;;;;;;;;21.30;82.12;100421.16;5365904;32;34943;-66
2022/08/25 03:45:20;;;;;;;;;;;;;;;21.50;81.59;100440.87;5392653;32;35014;-66
2022/08/25 03:48:22;;;;;;;;;;;;;;;21.22;83.56;100435.12;5369057;32;35053;-68
2022/08/25 03:51:29;;;;;;;;;;;;;;;21.74;80.68;100422.75;5367341;32;34593;-74
2022/08/25 03:54:30;;;;;;;;;;;;;;;21.65;79.97;100425.38;5397194;32;34557;-67
2022/08/25 03:57:32;;;;;;;;;;;;;;;21.40;81.18;100426.59;5367576;32;34172;-67
2022/08/25 04:00:34;;;;;;;;;;;;;;;21.27;82.77;100432.94;5380085;32;35028;-74
2022/08/25 04:03:36;;;;;;;;;;;;;;;21.62;80.64;100434.50;5356952;32;37222;-74
2022/08/25 04:06:39;;;;;;;;;;;;;;;21.53;81.90;100433.47;5378841;32;35400;-67
2022/08/25 04:09:41;;;;;;;;;;;;;;;22.08;78.85;100438.59;5378590;32;46079;-73
2022/08/25 04:12:42;;;;;;;;;;;;;;;21.61;81.21;100424.78;5378833;32;35076;-75
2022/08/25 04:15:44;;;;;;;;;;;;;;;21.66;81.76;100440.44;5393426;32;34363;-75
2022/08/25 04:18:46;;;;;;;;;;;;;;;21.64;81.08;100448.62;5378869;32;35010;-74
2022/08/25 04:21:48;;;;;;;;;;;;;;;21.52;82.44;100444.28;5373740;32;35621;-75
2022/08/25 04:24:50;;;;;;;;;;;;;;;22.29;79.22;100442.12;5376178;32;35250;-67
2022/08/25 04:27:53;;;;;;;;;;;;;;;22.40;76.54;100428.62;5384232;32;35602;-68
2022/08/25 04:30:55;;;;;;;;;;;;;;;22.13;79.60;100437.25;5391343;32;35787;-69
2022/08/25 04:33:57;;;;;;;;;;;;;;;21.94;79.85;100436.25;5380770;32;35382;-75
2022/08/25 04:37:00;;;;;;;;;;;;;;;21.77;81.18;100433.22;5396043;32;34903;-67
2022/08/25 04:40:03;;;;;;;;;;;;;;;21.67;81.41;100434.97;5367410;32;35339;-67
2022/08/25 04:43:05;;;;;;;;;;;;;;;22.03;79.55;100428.31;5383918;32;34889;-67
2022/08/25 04:46:08;;;;;;;;;;;;;;;22.17;79.41;100429.81;5373201;32;34038;-69
2022/08/25 04:49:10;;;;;;;;;;;;;;;21.97;79.76;100430.66;5380594;32;38258;-74
2022/08/25 04:52:12;;;;;;;;;;;;;;;22.24;79.55;100422.09;5368897;32;35659;-74
2022/08/25 04:55:17;;;;;;;;;;;;;;;22.36;78.33;100431.75;5379349;32;34644;-68
2022/08/25 04:58:18;;;;;;;;;;;;;;;22.92;75.58;100426.69;5388405;32;34997;-68
2022/08/25 05:01:21;;;;;;;;;;;;;;;23.14;74.12;100428.31;5349526;32;35646;-74
2022/08/25 05:04:23;;;;;;;;;;;;;;;23.82;71.11;100427.44;5387490;32;35493;-66
2022/08/25 05:07:29;;;;;;;;;;;;;;;23.78;70.69;100430.44;5364801;32;35352;-72
2022/08/25 05:10:32;;;;;;;;;;;;;;;24.24;69.38;100434.13;5383596;32;35578;-69
2022/08/25 05:13:34;;;;;;;;;;;;;;;25.35;64.13;100424.19;5376110;32;35466;-71
2022/08/25 05:16:36;;;;;;;;;;;;;;;26.37;61.43;100419.03;5365085;32;34927;-69
2022/08/25 05:19:38;;;;;;;;;;;;;;;26.78;59.24;100411.13;5385814;32;35995;-70
2022/08/25 05:22:42;;;;;;;;;;;;;;;26.87;58.55;100406.63;5369352;32;34500;-68
2022/08/25 05:25:44;;;;;;;;;;;;;;;27.72;54.81;100408.09;5388261;32;34904;-67
2022/08/25 05:28:50;;;;;;;;;;;;;;;26.63;58.87;100419.03;5379499;32;34781;-73
2022/08/25 05:31:52;;;;;;;;;;;;;;;27.02;57.38;100409.53;5369779;32;35005;-74
2022/08/25 05:34:54;;;;;;;;;;;;;;;26.94;57.72;100404.97;5373266;32;35020;-72
2022/08/25 05:37:56;;;;;;;;;;;;;;;27.46;55.38;100405.56;5376571;32;34479;-79
2022/08/25 05:40:59;;;;;;;;;;;;;;;28.66;51.69;100414.62;5391051;32;34670;-70
2022/08/25 05:44:01;;;;;;;;;;;;;;;28.37;51.64;100422.50;5367709;32;35123;-67
2022/08/25 05:47:03;;;;;;;;;;;;;;;28.83;51.04;100412.66;5376079;32;34176;-66
2022/08/25 05:50:05;;;;;;;;;;;;;;;28.66;51.25;100421.84;5372052;32;34026;-67
2022/08/25 05:53:07;;;;;;;;;;;;;;;29.84;48.17;100403.47;5387368;32;34366;-68
2022/08/25 05:56:09;;;;;;;;;;;;;;;27.59;53.76;100412.28;5381357;32;35393;-70
2022/08/25 05:59:11;;;;;;;;;;;;;;;27.63;54.54;100402.81;5364886;32;45066;-68
2022/08/25 06:05:36;;;;;;;;;;;;;;;29.30;49.10;100403.56;5373566;32;35744;-67
2022/08/25 06:08:38;;;;;;;;;;;;;;;29.84;47.32;100412.44;5392953;32;35294;-74
2022/08/25 06:11:41;;;;;;;;;;;;;;;30.06;47.67;100404.44;5374554;32;42985;-78
2022/08/25 06:14:43;;;;;;;;;;;;;;;30.63;46.07;100403.78;5377779;32;34301;-66
2022/08/25 06:17:46;;;;;;;;;;;;;;;29.99;47.04;100398.06;5388855;32;34314;-73
2022/08/25 06:20:48;;;;;;;;;;;;;;;29.48;48.54;100398.69;5378587;32;34239;-70
2022/08/25 06:23:50;;;;;;;;;;;;;;;31.41;43.91;100402.16;5397996;32;37284;-65
2022/08/25 06:26:53;;;;;;;;;;;;;;;31.11;44.03;100404.13;5370061;32;35588;-73
2022/08/25 06:29:55;;;;;;;;;;;;;;;31.53;43.51;100406.87;5388370;32;35598;-67
2022/08/25 06:33:01;;;;;;;;;;;;;;;31.54;43.02;100411.25;5393171;32;34783;-76
2022/08/25 06:36:03;;;;;;;;;;;;;;;31.90;42.30;100412.22;5375890;32;33723;-71
2022/08/25 06:39:05;;;;;;;;;;;;;;;29.88;46.36;100427.31;5400063;32;34135;-70
2022/08/25 06:42:07;;;;;;;;;;;;;;;30.14;46.21;100426.03;5380579;32;35412;-67
2022/08/25 06:45:09;;;;;;;;;;;;;;;32.49;40.40;100425.34;5399487;32;35766;-66
2022/08/25 06:48:10;;;;;;;;;;;;;;;32.87;39.98;100425.75;5380736;32;44392;-66
2022/08/25 06:51:13;;;;;;;;;;;;;;;30.59;44.65;100429.59;5383778;32;35049;-70
2022/08/25 06:54:15;;;;;;;;;;;;;;;32.69;40.20;100420.81;5386033;32;36119;-76
2022/08/25 06:57:17;;;;;;;;;;;;;;;33.28;39.06;100414.72;5383346;32;34848;-71
2022/08/25 07:00:19;;;;;;;;;;;;;;;33.22;39.29;100410.09;5379866;32;35991;-72
2022/08/25 07:03:21;;;;;;;;;;;;;;;33.10;38.84;100422.66;5369514;32;35052;-75
2022/08/25 07:06:23;;;;;;;;;;;;;;;33.06;39.55;100418.69;5382844;32;33422;-77
2022/08/25 07:09:25;;;;;;;;;;;;;;;31.93;41.48;100422.66;5378233;32;34436;-80
2022/08/25 07:12:27;;;;;;;;;;;;;;;32.82;39.83;100414.59;5382974;32;35481;-82
2022/08/25 07:15:29;;;;;;;;;;;;;;;33.82;37.81;100411.00;5370125;32;34237;-80
2022/08/25 07:18:32;;;;;;;;;;;;;;;32.79;40.08;100412.28;5379976;32;35483;-76
2022/08/25 07:21:36;;;;;;;;;;;;;;;32.04;41.11;100412.09;5390363;32;33439;-74
2022/08/25 07:24:38;;;;;;;;;;;;;;;32.39;40.73;100419.41;5381400;32;34132;-69
2022/08/25 07:27:40;;;;;;;;;;;;;;;32.43;40.42;100420.72;5389336;32;35343;-67
2022/08/25 07:30:43;;;;;;;;;;;;;;;33.73;37.89;100400.53;5377473;32;36109;-77
2022/08/25 07:37:13;;;;;;;;;;;;;;;32.04;41.30;100411.25;5395958;32;44773;-67
2022/08/25 07:40:36;;;;;;;;;;;;;;;33.49;38.51;100413.75;5380793;32;35715;-83
2022/08/25 07:43:43;;;;;;;;;;;;;;;33.03;39.43;100410.91;5397297;32;43038;-85
2022/08/25 07:46:45;;;;;;;;;;;;;;;34.30;36.78;100401.69;5368313;32;34550;-74
2022/08/25 07:49:51;;;;;;;;;;;;;;;35.64;33.87;100398.06;5376263;32;35440;-69
2022/08/25 07:52:53;;;;;;;;;;;;;;;34.25;36.74;100396.03;5387214;32;34233;-70
2022/08/25 07:55:56;;;;;;;;;;;;;;;34.11;36.84;100397.97;5374074;32;33832;-72
2022/08/25 07:58:58;;;;;;;;;;;;;;;34.57;35.25;100397.00;5396411;32;34221;-70
2022/08/25 08:02:00;;;;;;;;;;;;;;;34.91;35.22;100404.84;5353616;32;34550;-75
2022/08/25 08:05:02;;;;;;;;;;;;;;;35.07;35.15;100403.50;5385936;32;35147;-70
2022/08/25 08:08:04;;;;;;;;;;;;;;;33.96;36.14;100400.13;5374051;32;34122;-73
2022/08/25 08:11:06;;;;;;;;;;;;;;;34.71;34.11;100391.25;5374630;32;35561;-71
2022/08/25 08:14:10;;;;;;;;;;;;;;;34.56;34.15;100404.38;5383891;32;44050;-72
2022/08/25 08:17:12;;;;;;;;;;;;;;;34.60;33.93;100402.06;5377324;32;34468;-68
2022/08/25 08:20:15;;;;;;;;;;;;;;;36.93;30.30;100394.31;5389156;32;35547;-71
2022/08/25 08:23:26;;;;;;;;;;;;;;;33.98;35.60;100411.62;5394825;32;34711;-83
2022/08/25 08:26:29;;;;;;;;;;;;;;;35.05;33.81;100394.69;5382578;32;35473;-75
2022/08/25 08:29:52;;;;;;;;;;;;;;;34.10;35.09;100408.03;5386043;32;35878;-74
2022/08/25 08:32:55;;;;;;;;;;;;;;;37.74;29.10;100392.81;5385481;32;35463;-83
2022/08/25 08:36:13;;;;;;;;;;;;;;;36.08;31.79;100395.12;5394348;32;44579;-79
2022/08/25 08:39:21;;;;;;;;;;;;;;;37.86;29.11;100390.94;5388925;32;35620;-77
2022/08/25 08:42:51;;;;;;;;;;;;;;;36.85;30.12;100387.25;5390554;32;35501;-67
2022/08/25 08:45:53;;;;;;;;;;;;;;;37.75;29.27;100383.53;5391867;32;34326;-67
2022/08/25 08:49:05;;;;;;;;;;;;;;;36.74;31.06;100381.72;5377766;32;34364;-66
2022/08/25 08:52:08;;;;;;;;;;;;;;;34.96;32.99;100385.91;5387057;32;34429;-78
2022/08/25 08:55:26;;;;;;;;;;;;;;;35.41;32.86;100383.06;5376472;32;44588;-78
2022/08/25 08:58:46;;;;;;;;;;;;;;;38.47;28.05;100380.50;5386555;32;35476;-79
2022/08/25 09:01:58;;;;;;;;;;;;;;;38.12;28.17;100375.06;5369772;32;34379;-79
2022/08/25 09:05:02;;;;;;;;;;;;;;;39.59;25.36;100376.22;5376581;32;34168;-74
2022/08/25 09:08:06;;;;;;;;;;;;;;;35.29;31.97;100382.09;5393700;32;34803;-67
2022/08/25 09:11:12;;;;;;;;;;;;;;;35.94;31.52;100374.47;5377773;32;34129;-71
2022/08/25 09:14:34;;;;;;;;;;;;;;;38.03;28.16;100374.59;5386620;32;43145;-75
2022/08/25 09:17:46;;;;;;;;;;;;;;;37.70;28.42;100363.38;5394647;32;34344;-64
2022/08/25 09:21:16;;;;;;;;;;;;;;;36.69;29.87;100367.88;5382993;32;34532;-68
2022/08/25 09:24:37;;;;;;;;;;;;;;;39.01;26.57;100359.03;5389782;32;43939;-75
2022/08/25 09:27:39;;;;;;;;;;;;;;;40.09;24.94;100354.19;5381228;32;34365;-74
2022/08/25 09:30:42;;;;;;;;;;;;;;;38.44;26.82;100353.53;5379530;32;43844;-75
2022/08/25 09:33:44;;;;;;;;;;;;;;;38.43;26.85;100344.44;5395855;32;35446;-68
2022/08/25 09:36:49;;;;;;;;;;;;;;;40.10;24.53;100339.31;5378668;32;34151;-74
2022/08/25 09:39:52;;;;;;;;;;;;;;;38.00;27.62;100333.09;5382384;32;34291;-71
2022/08/25 09:43:00;;;;;;;;;;;;;;;37.40;28.42;100328.69;5373459;32;34189;-82
2022/08/25 09:46:03;;;;;;;;;;;;;;;37.27;28.98;100335.19;5382154;32;34897;-79
2022/08/25 09:49:10;;;;;;;;;;;;;;;37.97;27.61;100331.66;5387451;32;34513;-83
2022/08/25 09:52:21;;;;;;;;;;;;;;;37.60;28.30;100322.84;5374393;32;44797;-71
2022/08/25 09:55:29;;;;;;;;;;;;;;;39.44;25.12;100311.66;5386956;32;34364;-74
2022/08/25 09:58:33;;;;;;;;;;;;;;;41.00;23.13;100301.22;5382193;32;35042;-69
2022/08/25 10:01:35;;;;;;;;;;;;;;;37.26;27.86;100308.03;5378237;32;35130;-69
2022/08/25 10:04:38;;;;;;;;;;;;;;;40.34;23.91;100293.09;5368045;32;35524;-77
2022/08/25 10:07:47;;;;;;;;;;;;;;;39.21;25.10;100298.09;5381015;32;45900;-77
2022/08/25 10:10:53;;;;;;;;;;;;;;;37.92;27.05;100298.63;5392274;32;34304;-74
2022/08/25 10:14:01;;;;;;;;;;;;;;;36.56;28.59;100303.19;5379898;32;35490;-71
2022/08/25 10:17:26;;;;;;;;;;;;;;;38.40;26.29;100290.06;5397797;32;36523;-72
2022/08/25 10:20:30;;;;;;;;;;;;;;;41.25;22.60;100289.56;5382988;32;34276;-68
2022/08/25 10:23:46;;;;;;;;;;;;;;;41.54;21.46;100281.78;5387427;32;34192;-70
2022/08/25 10:26:54;;;;;;;;;;;;;;;39.15;24.49;100283.44;5388254;32;44374;-78
2022/08/25 10:29:59;;;;;;;;;;;;;;;39.64;23.80;100283.66;5392481;32;34334;-72
2022/08/25 10:33:06;;;;;;;;;;;;;;;37.26;26.81;100277.91;5395898;32;34216;-72
2022/08/25 10:36:12;;;;;;;;;;;;;;;37.79;26.21;100275.00;5382429;32;34458;-76
2022/08/25 10:39:37;;;;;;;;;;;;;;;35.25;30.06;100274.34;5381929;32;44429;-85
2022/08/25 10:42:44;;;;;;;;;;;;;;;36.77;28.27;100268.97;5393724;32;44934;-75
2022/08/25 10:45:53;;;;;;;;;;;;;;;35.99;29.01;100273.41;5384041;32;35662;-79
2022/08/25 10:49:03;;;;;;;;;;;;;;;36.47;28.28;100263.56;5397388;32;35391;-72
2022/08/25 10:52:29;;;;;;;;;;;;;;;36.87;27.28;100263.81;5382159;32;34577;-73
2022/08/25 10:55:39;;;;;;;;;;;;;;;35.62;29.26;100263.50;5377642;32;37395;-82
2022/08/25 10:58:41;;;;;;;;;;;;;;;34.35;31.75;100269.06;5398002;32;44492;-70
2022/08/25 11:02:02;;;;;;;;;;;;;;;34.01;32.27;100264.00;5367803;32;35364;-78
2022/08/25 11:05:09;;;;;;;;;;;;;;;34.31;31.72;100261.53;5395952;32;34249;-77
2022/08/25 11:08:23;;;;;;;;;;;;;;;34.39;31.63;100255.81;5381137;32;44502;-79
2022/08/25 11:11:34;;;;;;;;;;;;;;;36.13;29.17;100248.59;5385436;32;36312;-71
2022/08/25 11:14:50;;;;;;;;;;;;;;;36.45;28.15;100239.12;5429162;26;34358;-91
2022/08/25 11:17:54;;;;;;;;;;;;;;;35.99;28.83;100240.56;5406158;32;36044;-91
2022/08/25 11:21:00;;;;;;;;;;;;;;;34.83;30.53;100232.25;5405330;32;35384;-90
2022/08/25 11:24:09;;;;;;;;;;;;;;;35.90;29.12;100227.44;5401427;32;34332;-89
2022/08/25 11:27:14;;;;;;;;;;;;;;;34.12;32.14;100228.69;5390416;32;44638;-92
2022/08/25 11:30:18;;;;;;;;;;;;;;;34.72;31.12;100225.62;5405214;32;34318;-93
2022/08/25 11:33:22;;;;;;;;;;;;;;;34.68;31.42;100222.50;5396223;32;36898;-93
2022/08/25 11:36:31;;;;;;;;;;;;;;;37.41;26.76;100210.59;5415057;32;32770;-94
2022/08/25 11:39:34;;;;;;;;;;;;;;;38.79;25.09;100201.53;5409429;32;33724;-94
2022/08/25 11:42:36;;;;;;;;;;;;;;;39.74;23.56;100201.28;5416753;32;35249;-89
2022/08/25 11:45:38;;;;;;;;;;;;;;;39.22;24.20;100189.81;5409263;32;36928;-94
2022/08/25 11:48:41;;;;;;;;;;;;;;;38.21;25.72;100189.75;5409940;32;44600;-89
2022/08/25 11:51:45;;;;;;;;;;;;;;;37.84;26.53;100195.63;5406004;32;35766;-94
2022/08/25 11:54:49;;;;;;;;;;;;;;;39.43;24.53;100177.22;5405416;32;34800;-94
2022/08/25 11:57:52;;;;;;;;;;;;;;;38.34;25.81;100177.66;5402825;32;34274;-88
2022/08/25 12:00:55;;;;;;;;;;;;;;;38.79;25.43;100158.41;5390780;32;34570;-87
2022/08/25 12:04:16;;;;;;;;;;;;;;;39.26;24.36;100171.75;5404653;32;34837;-93
2022/08/25 12:07:20;;;;;;;;;;;;;;;38.99;24.73;100166.94;5411127;32;44551;-88
2022/08/25 12:10:23;;;;;;;;;;;;;;;41.53;21.42;100164.28;5374340;32;35813;-92
2022/08/25 12:13:44;;;;;;;;;;;;;;;40.66;22.56;100155.47;5412022;32;34485;-90
2022/08/25 12:16:49;;;;;;;;;;;;;;;40.69;22.49;100159.59;5409433;32;43470;-93
2022/08/25 12:19:53;;;;;;;;;;;;;;;41.40;21.71;100160.91;5408688;32;34087;-91
2022/08/25 12:22:57;;;;;;;;;;;;;;;41.54;21.34;100157.66;5409130;32;36324;-88
2022/08/25 12:26:18;;;;;;;;;;;;;;;39.37;23.82;100159.81;5380595;32;34363;-93
2022/08/25 12:29:25;;;;;;;;;;;;;;;40.04;22.97;100150.47;5414778;32;37118;-93
2022/08/25 12:32:33;;;;;;;;;;;;;;;41.20;21.54;100152.50;5400877;32;34648;-91
2022/08/25 12:35:40;;;;;;;;;;;;;;;39.80;23.02;100155.37;5413108;32;35672;-89
2022/08/25 12:38:44;;;;;;;;;;;;;;;36.95;26.93;100170.31;5411563;32;44809;-90
2022/08/25 12:41:54;;;;;;;;;;;;;;;39.00;24.03;100159.53;5407316;32;36740;-88
2022/08/25 12:45:15;;;;;;;;;;;;;;;39.79;23.39;100151.81;5422211;32;35729;-90
2022/08/25 12:48:26;;;;;;;;;;;;;;;42.65;19.76;100135.00;5404989;32;44547;-89
2022/08/25 12:51:31;;;;;;;;;;;;;;;40.95;21.71;100142.16;5426844;32;34560;-90
2022/08/25 12:54:36;;;;;;;;;;;;;;;41.62;21.25;100135.09;5405623;32;35040;-91
2022/08/25 12:57:50;;;;;;;;;;;;;;;41.90;20.55;100139.31;5415929;32;34514;-92
2022/08/25 13:01:15;;;;;;;;;;;;;;;39.74;22.97;100143.53;5402090;32;36286;-88
2022/08/25 13:04:37;;;;;;;;;;;;;;;39.07;24.02;100135.47;5383655;32;35951;-91
2022/08/25 13:08:02;;;;;;;;;;;;;;;36.48;27.33;100142.06;5417299;32;44733;-93
2022/08/25 13:11:08;;;;;;;;;;;;;;;36.71;27.10;100141.22;5429352;32;34263;-92
2022/08/25 13:14:19;;;;;;;;;;;;;;;36.29;27.94;100136.63;5415280;32;44692;-89
2022/08/25 13:17:30;;;;;;;;;;;;;;;35.97;28.25;100133.31;5410799;32;36992;-92
2022/08/25 13:20:34;;;;;;;;;;;;;;;35.52;28.80;100133.69;5418519;32;34360;-92
2022/08/25 13:23:37;;;;;;;;;;;;;;;34.28;30.95;100131.87;5399702;32;34180;-93
2022/08/25 13:26:41;;;;;;;;;;;;;;;34.72;30.48;100127.38;5415480;32;35415;-93
2022/08/25 13:29:54;;;;;;;;;;;;;;;35.52;29.13;100128.22;5397833;32;34372;-87
2022/08/25 13:32:56;;;;;;;;;;;;;;;35.23;29.49;100124.34;5416838;32;33700;-88
2022/08/25 13:39:22;;;;;;;;;;;;;;;35.39;29.14;100117.44;5409759;32;34115;-88
2022/08/25 13:42:45;;;;;;;;;;;;;;;34.88;29.84;100115.03;5402343;32;45143;-89
2022/08/25 13:45:56;;;;;;;;;;;;;;;34.80;29.95;100107.97;5397657;32;34484;-88
2022/08/25 13:49:03;;;;;;;;;;;;;;;34.77;30.00;100105.66;5407932;32;35027;-89
2022/08/25 13:52:06;;;;;;;;;;;;;;;35.40;29.34;100107.31;5401314;32;35414;-93
2022/08/25 13:55:09;;;;;;;;;;;;;;;34.30;31.03;100112.56;5413325;32;34470;-93
2022/08/25 13:58:14;;;;;;;;;;;;;;;34.47;30.36;100109.09;5391438;32;45804;-92
2022/08/25 14:01:26;;;;;;;;;;;;;;;34.00;31.34;100110.44;5371843;32;35063;-89
2022/08/25 14:04:49;;;;;;;;;;;;;;;33.66;31.87;100109.78;5401012;32;44924;-92
2022/08/25 14:07:55;;;;;;;;;;;;;;;33.40;32.54;100107.19;5403004;32;35628;-92
2022/08/25 14:11:27;;;;;;;;;;;;;;;34.24;31.48;100105.25;5375653;32;44866;-88
2022/08/25 14:14:32;;;;;;;;;;;;;;;33.56;32.30;100103.97;5415869;32;34492;-92
2022/08/25 14:17:35;;;;;;;;;;;;;;;34.22;31.38;100094.59;5411606;32;34019;-89
2022/08/25 14:20:45;;;;;;;;;;;;;;;33.80;32.24;100099.66;5405371;32;42977;-90
2022/08/25 14:23:47;;;;;;;;;;;;;;;33.93;32.19;100085.13;5387460;32;34305;-94
2022/08/25 14:26:50;;;;;;;;;;;;;;;34.43;31.59;100091.50;5408720;32;35433;-89
2022/08/25 14:29:55;;;;;;;;;;;;;;;33.83;33.03;100091.03;5393462;32;35474;-89
2022/08/25 14:32:57;;;;;;;;;;;;;;;34.01;32.06;100084.06;5411465;32;34296;-89
2022/08/25 14:36:01;;;;;;;;;;;;;;;34.18;32.06;100094.19;5440682;32;34373;-93
2022/08/25 14:39:06;;;;;;;;;;;;;;;33.39;33.22;100090.00;5395191;32;35817;-91
2022/08/25 14:42:10;;;;;;;;;;;;;;;33.86;32.82;100085.13;5438213;32;32956;-91
2022/08/25 14:45:14;;;;;;;;;;;;;;;33.46;33.77;100080.97;5415290;32;44725;-95
2022/08/25 14:48:20;;;;;;;;;;;;;;;34.19;32.58;100063.13;5416454;32;34365;-90
2022/08/25 14:51:22;;;;;;;;;;;;;;;34.16;32.29;100077.22;5414238;32;34733;-90
2022/08/25 14:54:26;;;;;;;;;;;;;;;33.50;33.87;100074.87;5422839;32;34370;-90
2022/08/25 14:57:27;;;;;;;;;;;;;;;34.50;31.91;100066.06;5420568;32;33105;-88
2022/08/25 15:00:30;;;;;;;;;;;;;;;32.96;34.44;100081.53;5406785;32;35210;-89
2022/08/25 15:03:34;;;;;;;;;;;;;;;33.27;34.24;100072.62;5406926;32;34159;-90
2022/08/25 15:06:40;;;;;;;;;;;;;;;33.71;33.58;100079.16;5406206;32;33672;-92
2022/08/25 15:09:44;;;;;;;;;;;;;;;34.11;32.50;100071.59;5397005;32;44549;-94
2022/08/25 15:12:48;;;;;;;;;;;;;;;34.15;32.87;100061.91;5414777;32;35257;-89
2022/08/25 15:15:58;;;;;;;;;;;;;;;33.85;33.15;100067.13;5430319;32;36247;-93
2022/08/25 15:19:03;;;;;;;;;;;;;;;33.10;34.64;100077.72;5444652;32;34282;-89
2022/08/25 15:22:10;;;;;;;;;;;;;;;33.07;34.82;100071.88;5466833;32;32908;-94
2022/08/25 15:25:13;;;;;;;;;;;;;;;32.82;35.24;100080.69;5430012;32;45399;-95
2022/08/25 15:28:18;;;;;;;;;;;;;;;33.98;33.54;100065.41;5394478;32;34631;-90
2022/08/25 15:31:23;;;;;;;;;;;;;;;33.92;33.46;100067.94;5419207;32;36050;-89
2022/08/25 15:34:28;;;;;;;;;;;;;;;33.67;33.49;100064.28;5419512;32;35753;-94
2022/08/25 15:37:30;;;;;;;;;;;;;;;33.67;33.44;100065.13;5393132;32;34442;-93
2022/08/25 15:40:34;;;;;;;;;;;;;;;33.77;33.36;100061.94;5411655;32;34132;-91
2022/08/25 15:43:36;;;;;;;;;;;;;;;33.82;33.36;100062.12;5400254;32;34660;-93
2022/08/25 15:46:39;;;;;;;;;;;;;;;33.36;33.53;100057.72;5415563;32;34178;-89
2022/08/25 15:49:41;;;;;;;;;;;;;;;32.86;34.77;100064.78;5399709;32;44534;-95
2022/08/25 15:52:45;;;;;;;;;;;;;;;33.12;34.45;100053.84;5406563;32;34148;-90
2022/08/25 15:55:49;;;;;;;;;;;;;;;33.78;33.70;100051.88;5414549;32;35166;-96
2022/08/25 15:58:55;;;;;;;;;;;;;;;33.63;33.56;100041.28;5410807;32;34188;-89
2022/08/25 16:01:58;;;;;;;;;;;;;;;33.50;33.79;100041.34;5402693;32;34303;-90